createdAt,value
2023-02-08T14:18:30.102Z,48.87
2023-02-08T14:21:04.403Z,48.45
2023-02-08T14:23:38.288Z,48.61
2023-02-08T14:26:20.053Z,48.63
2023-02-08T14:32:06.481Z,49.02
2023-02-08T14:34:39.137Z,48.28
2023-02-08T14:37:29.065Z,49.70
2023-02-08T14:40:42.350Z,50.34
2023-02-08T14:43:29.889Z,50.42
2023-02-08T14:46:19.493Z,50.20
2023-02-08T14:48:49.877Z,50.74
2023-02-08T14:51:24.898Z,50.83
2023-02-08T14:53:56.643Z,50.49
2023-02-08T14:56:28.111Z,50.97
2023-02-08T14:59:00.209Z,51.34
2023-02-08T15:01:43.926Z,51.45
2023-02-08T15:04:17.577Z,51.68
2023-02-08T15:07:17.701Z,51.70
2023-02-08T15:09:46.946Z,52.11
2023-02-08T15:12:22.647Z,52.24
2023-02-08T15:14:53.894Z,52.68
2023-02-08T15:17:33.030Z,52.67
2023-02-08T15:20:05.314Z,53.25
2023-02-08T15:22:37.294Z,53.19
2023-02-08T15:25:22.695Z,53.52
2023-02-08T15:27:53.836Z,54.12
2023-02-08T15:30:32.606Z,54.25
2023-02-08T15:33:08.348Z,54.51
2023-02-08T15:35:38.339Z,54.92
2023-02-08T15:38:15.583Z,54.99
2023-02-08T15:40:58.842Z,55.14
2023-02-08T15:43:27.809Z,55.36
2023-02-08T15:46:01.512Z,55.91
2023-02-08T15:48:32.520Z,56.08
2023-02-08T15:51:02.225Z,56.26
2023-02-08T15:53:31.784Z,56.68
2023-02-08T15:56:03.917Z,56.85
2023-02-08T15:58:36.166Z,56.84
2023-02-08T16:01:09.484Z,57.38
2023-02-08T16:03:38.403Z,57.28
2023-02-08T16:06:10.163Z,57.52
2023-02-08T16:08:42.815Z,57.55
2023-02-08T16:11:15.483Z,57.82
2023-02-08T16:13:49.347Z,57.95
2023-02-08T16:16:22.925Z,58.26
2023-02-08T16:18:58.303Z,58.72
2023-02-08T16:21:34.802Z,58.98
2023-02-08T16:24:21.779Z,59.07
2023-02-08T16:26:58.293Z,59.17
2023-02-08T16:29:35.700Z,59.32
2023-02-08T16:32:11.185Z,59.46
2023-02-08T16:34:42.197Z,59.70
2023-02-08T16:37:25.673Z,59.98
2023-02-08T16:39:56.007Z,59.98
2023-02-08T16:42:35.139Z,59.98
2023-02-08T16:45:20.085Z,60.33
2023-02-08T16:47:51.722Z,60.28
2023-02-08T16:50:22.848Z,60.24
2023-02-08T16:52:54.586Z,60.54
2023-02-08T16:55:26.593Z,60.34
2023-02-08T16:57:57.411Z,60.67
2023-02-08T17:00:28.456Z,60.98
2023-02-08T17:02:57.838Z,61.24
2023-02-08T17:05:30.447Z,61.64
2023-02-08T17:08:00.194Z,61.93
2023-02-08T17:10:31.200Z,61.81
2023-02-08T17:13:18.702Z,61.99
2023-02-08T17:15:50.508Z,62.29
2023-02-08T17:18:20.678Z,62.21
2023-02-08T17:20:56.724Z,62.44
2023-02-08T17:23:26.384Z,62.30
2023-02-08T17:25:56.688Z,62.42
2023-02-08T17:28:27.163Z,62.49
2023-02-08T17:30:56.166Z,62.61
2023-02-08T17:33:27.852Z,63.26
2023-02-08T17:35:56.596Z,63.05
2023-02-08T17:38:25.530Z,63.00
2023-02-08T17:40:54.907Z,63.43
2023-02-08T17:43:24.617Z,63.51
2023-02-08T17:45:53.435Z,63.68
2023-02-08T17:48:22.228Z,63.77
2023-02-08T17:50:52.988Z,64.05
2023-02-08T17:53:21.853Z,64.22
2023-02-08T17:55:51.814Z,64.12
2023-02-08T17:58:22.856Z,64.16
2023-02-08T18:00:51.722Z,64.51
2023-02-08T18:03:20.619Z,64.60
2023-02-08T18:05:59.152Z,64.69
2023-02-08T18:08:28.804Z,64.82
2023-02-08T18:11:03.914Z,64.78
2023-02-08T18:13:33.901Z,65.05
2023-02-08T18:16:12.604Z,65.13
2023-02-08T18:18:41.618Z,65.11
2023-02-08T18:21:11.990Z,65.52
2023-02-08T18:23:42.064Z,66.02
2023-02-08T18:26:14.151Z,65.97
2023-02-08T18:28:43.110Z,65.95
2023-02-08T18:31:14.903Z,66.30
2023-02-08T18:33:44.475Z,66.30
2023-02-08T18:36:15.044Z,66.47
2023-02-08T18:38:46.508Z,66.63
2023-02-08T18:41:18.150Z,66.78
2023-02-08T18:43:50.909Z,66.65
2023-02-08T18:46:21.942Z,66.48
2023-02-08T18:48:53.161Z,66.37
2023-02-08T18:51:23.945Z,66.50
2023-02-08T18:53:54.840Z,66.47
2023-02-08T18:56:32.490Z,66.69
2023-02-08T18:59:01.927Z,66.94
2023-02-08T19:01:30.826Z,67.33
2023-02-08T19:03:59.732Z,67.18
2023-02-08T19:06:31.022Z,67.14
2023-02-08T19:09:02.965Z,66.90
2023-02-08T19:11:34.199Z,67.28
2023-02-08T19:14:05.368Z,67.28
2023-02-08T19:16:36.642Z,67.16
2023-02-08T19:19:07.122Z,67.59
2023-02-08T19:21:34.998Z,67.96
2023-02-08T19:24:04.699Z,68.10
2023-02-08T19:26:38.914Z,68.14
2023-02-08T19:29:13.118Z,68.13
2023-02-08T19:31:43.251Z,68.16
2023-02-08T19:34:12.641Z,68.00
2023-02-08T19:36:43.947Z,68.01
2023-02-08T19:39:18.296Z,68.16
2023-02-08T19:41:47.775Z,67.89
2023-02-08T19:44:21.725Z,68.21
2023-02-08T19:46:53.010Z,68.76
2023-02-08T19:49:23.122Z,69.76
2023-02-08T19:51:52.886Z,69.04
2023-02-08T19:54:22.061Z,69.40
2023-02-08T19:56:54.060Z,69.77
2023-02-08T19:59:26.003Z,70.61
2023-02-08T20:01:55.393Z,71.23
2023-02-08T20:04:24.656Z,70.74
2023-02-08T20:06:54.089Z,70.27
2023-02-08T20:09:22.955Z,70.02
2023-02-08T20:11:56.987Z,69.65
2023-02-08T20:14:28.437Z,69.61
2023-02-08T20:16:57.608Z,69.84
2023-02-08T20:19:27.726Z,69.97
2023-02-08T20:21:55.678Z,70.17
2023-02-08T20:24:24.423Z,70.64
2023-02-08T20:26:53.287Z,70.87
2023-02-08T20:29:22.101Z,70.67
2023-02-08T20:31:54.897Z,70.80
2023-02-08T20:34:24.615Z,70.64
2023-02-08T20:37:06.269Z,70.43
2023-02-08T20:39:41.084Z,70.46
2023-02-08T20:42:10.210Z,71.03
2023-02-08T20:44:45.072Z,71.47
2023-02-08T20:47:18.513Z,71.40
2023-02-08T20:49:51.257Z,71.17
2023-02-08T20:52:20.157Z,71.17
2023-02-08T20:54:48.998Z,71.22
2023-02-08T20:57:17.852Z,71.37
2023-02-08T20:59:49.595Z,72.03
2023-02-08T21:02:21.246Z,71.71
2023-02-08T21:04:50.496Z,71.65
2023-02-08T21:07:19.608Z,71.81
2023-02-08T21:09:48.939Z,71.37
2023-02-08T21:12:18.301Z,71.07
2023-02-08T21:14:47.398Z,70.98
2023-02-08T21:17:16.534Z,71.02
2023-02-08T21:19:47.058Z,70.66
2023-02-08T21:22:18.929Z,70.81
2023-02-08T21:24:47.777Z,71.03
2023-02-08T21:27:18.506Z,70.97
2023-02-08T21:29:51.310Z,70.97
2023-02-08T21:32:20.201Z,71.02
2023-02-08T21:34:51.498Z,70.84
2023-02-08T21:37:22.745Z,71.07
2023-02-08T21:39:51.611Z,71.25
2023-02-08T21:42:20.488Z,71.15
2023-02-08T21:44:49.345Z,70.93
2023-02-08T21:47:18.151Z,70.98
2023-02-08T21:50:06.623Z,71.47
2023-02-08T21:52:53.963Z,71.14
2023-02-08T21:55:22.827Z,70.53
2023-02-08T21:57:51.590Z,70.70
2023-02-08T22:00:20.417Z,70.96
2023-02-08T22:02:49.301Z,71.21
2023-02-08T22:05:37.326Z,71.20
2023-02-08T22:08:06.468Z,71.16
2023-02-08T22:10:35.392Z,71.15
2023-02-08T22:13:04.485Z,71.10
2023-02-08T22:15:34.424Z,71.17
2023-02-08T22:18:04.225Z,71.65
2023-02-08T22:20:33.622Z,71.80
2023-02-08T22:23:02.775Z,71.22
2023-02-08T22:25:31.978Z,71.11
2023-02-08T22:28:01.067Z,71.33
2023-02-08T22:30:30.587Z,71.40
2023-02-08T22:32:59.491Z,71.03
2023-02-08T22:35:29.199Z,70.77
2023-02-08T22:37:58.036Z,70.82
2023-02-08T22:40:26.919Z,71.39
2023-02-08T22:42:55.956Z,71.63
2023-02-08T22:45:24.942Z,71.17
2023-02-08T22:47:53.735Z,70.83
2023-02-08T22:50:22.776Z,70.83
2023-02-08T22:52:51.771Z,70.77
2023-02-08T22:55:20.867Z,71.10
2023-02-08T22:57:49.880Z,71.57
2023-02-08T23:00:18.976Z,71.64
2023-02-08T23:02:49.279Z,71.30
2023-02-08T23:05:18.917Z,71.11
2023-02-08T23:07:48.162Z,71.42
2023-02-08T23:10:17.203Z,71.46
2023-02-08T23:12:46.217Z,71.76
2023-02-08T23:15:15.521Z,71.63
2023-02-08T23:20:58.378Z,72.55
2023-02-08T23:23:31.064Z,73.31
2023-02-08T23:26:07.224Z,73.76
2023-02-08T23:28:39.969Z,75.55
2023-02-08T23:31:17.280Z,76.32
2023-02-08T23:33:50.294Z,78.80
2023-02-08T23:36:24.498Z,79.17
2023-02-08T23:38:56.928Z,80.38
2023-02-08T23:41:29.475Z,79.09
2023-02-08T23:44:01.998Z,79.21
2023-02-08T23:46:35.120Z,78.94
2023-02-08T23:49:07.698Z,78.37
2023-02-08T23:51:40.135Z,77.94
2023-02-08T23:54:13.854Z,77.33
2023-02-08T23:56:47.141Z,77.10
2023-02-08T23:59:23.034Z,76.94
